createdAt,value
2022-09-26T00:01:54.148Z,10.1
2022-09-26T00:07:01.361Z,10.3
2022-09-26T00:12:08.561Z,10.7
2022-09-26T00:22:22.921Z,10.7
2022-09-26T00:27:30.073Z,10.7
2022-09-26T00:32:37.239Z,10.5
2022-09-26T00:37:44.424Z,10.4
2022-09-26T00:42:51.569Z,10.4
2022-09-26T00:47:58.736Z,10.5
2022-09-26T00:53:05.919Z,10.6
2022-09-26T00:58:13.062Z,10.6
2022-09-26T01:03:20.317Z,10.7
2022-09-26T01:08:27.429Z,10.7
2022-09-26T01:13:34.596Z,10.8
2022-09-26T01:18:41.782Z,10.6
2022-09-26T01:23:48.887Z,10.6
2022-09-26T01:28:56.110Z,10.5
2022-09-26T01:34:03.351Z,10.6
2022-09-26T01:39:10.585Z,10.6
2022-09-26T01:44:17.835Z,10.4
2022-09-26T01:49:25.089Z,10.5
2022-09-26T01:54:32.401Z,10.7
2022-09-26T01:59:39.555Z,10.7
2022-09-26T02:04:46.771Z,10.7
2022-09-26T02:09:54.107Z,10.7
2022-09-26T02:15:01.237Z,10.6
2022-09-26T02:20:08.482Z,10.5
2022-09-26T02:25:15.709Z,10.5
2022-09-26T02:30:22.957Z,10.6
2022-09-26T02:35:30.361Z,10.6
2022-09-26T02:40:37.747Z,10.4
2022-09-26T02:45:45.152Z,10.3
2022-09-26T02:50:52.556Z,10.2
2022-09-26T02:55:59.955Z,9.7
2022-09-26T03:01:07.496Z,9.6
2022-09-26T03:06:14.907Z,9.3
2022-09-26T03:11:22.277Z,9.2
2022-09-26T03:16:29.745Z,9
2022-09-26T03:21:37.256Z,8.6
2022-09-26T03:26:44.693Z,7.9
2022-09-26T03:31:52.197Z,8
2022-09-26T03:36:59.750Z,7.7
2022-09-26T03:42:07.557Z,7.4
2022-09-26T03:47:15.369Z,7
2022-09-26T03:52:23.182Z,6.6
2022-09-26T03:57:30.966Z,6.9
2022-09-26T04:02:38.872Z,6.8
2022-09-26T04:07:46.692Z,6.8
2022-09-26T04:12:54.560Z,6.8
2022-09-26T04:18:02.397Z,6.8
2022-09-26T04:23:10.286Z,6.8
2022-09-26T04:28:18.070Z,6.8
2022-09-26T04:33:25.935Z,7.1
2022-09-26T04:38:33.763Z,7
2022-09-26T04:43:41.570Z,7.2
2022-09-26T04:48:50.000Z,7.7
2022-09-26T04:53:56.995Z,8
2022-09-26T04:59:04.418Z,8
2022-09-26T05:04:11.890Z,8.1
2022-09-26T05:09:19.236Z,8
2022-09-26T05:14:26.659Z,8
2022-09-26T05:19:34.031Z,8.2
2022-09-26T05:24:41.445Z,8.1
2022-09-26T05:29:48.803Z,8.3
2022-09-26T05:34:56.163Z,8.5
2022-09-26T05:40:03.545Z,9
2022-09-26T05:45:10.883Z,9.1
2022-09-26T05:50:18.251Z,9.1
2022-09-26T05:55:25.606Z,9.6
2022-09-26T06:00:32.966Z,9.8
2022-09-26T06:05:40.198Z,10.1
2022-09-26T06:10:47.500Z,10.2
2022-09-26T06:15:54.693Z,10.4
2022-09-26T06:21:01.948Z,10.6
2022-09-26T06:26:09.161Z,10.8
2022-09-26T06:31:16.374Z,11
2022-09-26T06:36:23.574Z,11.2
2022-09-26T06:41:30.804Z,11.2
2022-09-26T06:46:37.916Z,11.3
2022-09-26T06:51:45.215Z,12
2022-09-26T06:56:52.336Z,12.3
2022-09-26T07:01:59.584Z,12.9
2022-09-26T07:07:06.811Z,13.8
2022-09-26T07:12:14.065Z,14.5
2022-09-26T07:17:21.419Z,15.2
2022-09-26T07:22:28.519Z,15
2022-09-26T07:27:35.718Z,15.7
2022-09-26T07:32:42.867Z,15
2022-09-26T07:37:50.012Z,15.5
2022-09-26T07:42:57.147Z,15.4
2022-09-26T07:48:04.268Z,16.7
2022-09-26T07:53:11.348Z,15
2022-09-26T07:58:18.462Z,14.9
2022-09-26T08:03:25.554Z,16.5
2022-09-26T08:08:32.878Z,16.1
2022-09-26T08:13:40.178Z,16.1
2022-09-26T08:18:47.448Z,16.7
2022-09-26T08:23:54.793Z,17.8
2022-09-26T08:29:01.946Z,16.5
2022-09-26T08:34:09.163Z,17.5
2022-09-26T08:39:16.368Z,18.9
2022-09-26T08:44:23.531Z,18.5
2022-09-26T08:49:30.710Z,18.1
2022-09-26T08:54:37.832Z,19.4
2022-09-26T08:59:44.974Z,19.2
2022-09-26T09:04:52.128Z,18.3
2022-09-26T09:09:59.366Z,17.4
2022-09-26T09:15:07.028Z,16.8
2022-09-26T09:20:13.504Z,17.9
2022-09-26T09:25:20.324Z,17.9
2022-09-26T09:30:26.924Z,18.7
2022-09-26T09:35:33.670Z,19.3
2022-09-26T09:40:40.430Z,18.9
2022-09-26T09:45:47.163Z,18.5
2022-09-26T09:50:53.875Z,18.8
2022-09-26T09:56:00.602Z,20.6
2022-09-26T10:01:07.277Z,20
2022-09-26T10:06:14.000Z,18
2022-09-26T10:11:20.723Z,17.3
2022-09-26T10:16:27.476Z,17.1
2022-09-26T10:21:34.246Z,16
2022-09-26T10:26:41.005Z,18.3
2022-09-26T10:31:47.793Z,19
2022-09-26T10:36:54.554Z,19.5
2022-09-26T10:42:01.345Z,18.2
2022-09-26T10:47:08.071Z,17.5
2022-09-26T10:52:14.775Z,16.6
2022-09-26T10:57:21.556Z,16.7
2022-09-26T11:02:28.303Z,16.6
2022-09-26T11:07:35.103Z,16.5
2022-09-26T11:12:41.875Z,17.8
2022-09-26T11:17:48.640Z,18
2022-09-26T11:22:55.476Z,17.5
2022-09-26T11:28:02.333Z,18.1
2022-09-26T11:33:09.222Z,17.9
2022-09-26T11:38:16.150Z,16.9
2022-09-26T11:43:22.994Z,17.8
2022-09-26T11:48:29.921Z,18
2022-09-26T11:53:36.855Z,19
2022-09-26T11:58:43.718Z,18.5
2022-09-26T12:03:50.597Z,18.3
2022-09-26T12:08:57.471Z,18.3
2022-09-26T12:14:04.329Z,19.6
2022-09-26T12:19:11.201Z,18.1
2022-09-26T12:24:18.039Z,17.8
2022-09-26T12:29:24.912Z,18.2
2022-09-26T12:34:32.094Z,16.4
2022-09-26T12:39:39.188Z,16.6
2022-09-26T12:44:46.333Z,16.8
2022-09-26T12:49:53.527Z,16.5
2022-09-26T12:55:00.714Z,19.6
2022-09-26T13:00:07.883Z,17
2022-09-26T13:05:15.045Z,16.6
2022-09-26T13:10:22.231Z,16.8
2022-09-26T13:15:29.373Z,16.2
2022-09-26T13:20:36.575Z,16.4
2022-09-26T13:25:43.796Z,16.8
2022-09-26T13:30:51.005Z,17.1
2022-09-26T13:35:58.182Z,17.1
2022-09-26T13:46:13.751Z,18.5
2022-09-26T13:51:21.484Z,17.8
2022-09-26T13:56:27.745Z,18.2
2022-09-26T14:01:34.415Z,18.1
2022-09-26T14:06:41.093Z,18.9
2022-09-26T14:11:47.749Z,18.7
2022-09-26T14:16:54.402Z,19.6
2022-09-26T14:22:01.130Z,19.3
2022-09-26T14:27:07.705Z,18.1
2022-09-26T14:32:14.203Z,20.4
2022-09-26T14:37:20.750Z,18.3
2022-09-26T14:42:27.330Z,17.5
2022-09-26T14:47:33.984Z,17.3
2022-09-26T14:52:40.580Z,18.6
2022-09-26T14:57:47.237Z,18.4
2022-09-26T15:02:53.865Z,18.8
2022-09-26T15:08:00.508Z,19.5
2022-09-26T15:13:07.064Z,17.7
2022-09-26T15:18:13.681Z,16.1
2022-09-26T15:23:20.300Z,15.8
2022-09-26T15:28:26.977Z,15.4
2022-09-26T15:33:33.749Z,15.4
2022-09-26T15:38:40.578Z,15.3
2022-09-26T15:43:47.406Z,15.1
2022-09-26T15:48:54.226Z,14.9
2022-09-26T15:54:01.094Z,15
2022-09-26T15:59:07.989Z,14.8
2022-09-26T16:04:14.948Z,14.8
2022-09-26T16:09:21.937Z,14.9
2022-09-26T16:14:28.963Z,14.8
2022-09-26T16:19:35.935Z,14.8
2022-09-26T16:24:42.966Z,14.8
2022-09-26T16:29:49.896Z,14.7
2022-09-26T16:40:03.937Z,14.7
2022-09-26T16:45:10.914Z,14.7
2022-09-26T16:50:17.893Z,14.7
2022-09-26T16:55:24.921Z,14.6
2022-09-26T17:00:31.990Z,14.3
2022-09-26T17:05:38.987Z,14.4
2022-09-26T17:10:46.093Z,14.1
2022-09-26T17:15:53.221Z,14
2022-09-26T17:21:00.451Z,14.2
2022-09-26T17:26:07.573Z,14.2
2022-09-26T17:31:14.803Z,14.1
2022-09-26T17:36:22.016Z,14.1
2022-09-26T17:41:29.225Z,14.1
2022-09-26T17:46:36.438Z,14
2022-09-26T17:51:43.669Z,14
2022-09-26T17:56:50.935Z,13.8
2022-09-26T18:01:58.240Z,13.5
2022-09-26T18:07:05.482Z,13.5
2022-09-26T18:12:12.635Z,13.2
2022-09-26T18:17:20.152Z,12.9
2022-09-26T18:22:27.611Z,13
2022-09-26T18:27:35.152Z,13
2022-09-26T18:32:42.625Z,12.9
2022-09-26T18:37:50.143Z,13.1
2022-09-26T18:42:57.686Z,13
2022-09-26T18:48:05.179Z,13.1
2022-09-26T18:53:12.701Z,13
2022-09-26T18:58:20.258Z,12.9
2022-09-26T19:03:27.730Z,12.8
2022-09-26T19:08:35.285Z,12.9
2022-09-26T19:13:42.770Z,12.7
2022-09-26T19:18:50.330Z,12.7
2022-09-26T19:23:58.634Z,12.9
2022-09-26T19:29:07.791Z,12.8
2022-09-26T19:34:14.805Z,12.8
2022-09-26T19:39:22.976Z,12.8
2022-09-26T19:44:31.098Z,12.8
2022-09-26T19:49:39.280Z,12.9
2022-09-26T19:54:47.396Z,12.8
2022-09-26T19:59:55.560Z,12.8
2022-09-26T20:05:03.684Z,12.7
2022-09-26T20:10:11.794Z,12.8
2022-09-26T20:15:19.944Z,12.7
2022-09-26T20:20:28.081Z,12.5
2022-09-26T20:25:36.189Z,12.3
2022-09-26T20:30:45.373Z,12.3
2022-09-26T20:35:52.746Z,12.3
2022-09-26T20:40:59.840Z,12.4
2022-09-26T20:46:06.923Z,12.5
2022-09-26T20:51:14.076Z,12.4
2022-09-26T20:56:21.149Z,12.5
2022-09-26T21:01:28.255Z,12.5
2022-09-26T21:06:35.323Z,12.4
2022-09-26T21:11:42.437Z,12.4
2022-09-26T21:16:49.559Z,12.4
2022-09-26T21:21:56.617Z,12.3
2022-09-26T21:27:03.681Z,12.3
2022-09-26T21:32:10.716Z,12.3
2022-09-26T21:37:17.814Z,12.3
2022-09-26T21:42:24.899Z,12.2
2022-09-26T21:47:31.958Z,12.3
2022-09-26T21:52:39.024Z,12.3
2022-09-26T21:57:46.076Z,12.2
2022-09-26T22:02:53.157Z,12.2
2022-09-26T22:08:00.229Z,12.2
2022-09-26T22:13:07.273Z,12.2
2022-09-26T22:18:14.349Z,12.2
2022-09-26T22:23:21.386Z,12.1
2022-09-26T22:28:28.432Z,12.1
2022-09-26T22:33:35.489Z,12.1
2022-09-26T22:38:42.549Z,12.1
2022-09-26T22:43:49.667Z,12
2022-09-26T22:48:56.892Z,11.9
2022-09-26T22:54:04.086Z,12
2022-09-26T22:59:11.270Z,12
2022-09-26T23:04:18.471Z,12
2022-09-26T23:09:25.640Z,12
2022-09-26T23:14:32.843Z,12
2022-09-26T23:19:40.043Z,12
2022-09-26T23:24:47.184Z,12.1
2022-09-26T23:29:54.370Z,12.1
2022-09-26T23:35:01.540Z,12.1
2022-09-26T23:40:08.747Z,11.9
2022-09-26T23:45:15.919Z,11.9
2022-09-26T23:50:23.227Z,11.7
2022-09-26T23:55:30.546Z,11.9
